ADDS METAR Data INFO
IDs: Format: Raw Decoded Include TAF

Data at: 2111 UTC 22 Oct 2017

KBVN 222055Z AUTO 23012G20KT 10SM CLR 20/M03 A2999 RMK AO2 T02001028
KBVN 222035Z AUTO 23014KT 10SM CLR 20/M04 A2999 RMK AO2 T02021039
KBVN 222015Z AUTO 24009G17KT 10SM CLR 20/M03 A2999 RMK AO2 T02031032
KBVN 221955Z AUTO 24013G19KT 10SM CLR 20/M04 A3000 RMK AO2 T02011038
KBVN 221935Z AUTO 24012G16KT 10SM CLR 20/M04 A3001 RMK AO2 T02001039
KBVN 221915Z AUTO 27011G19KT 10SM CLR 20/M05 A3002 RMK AO2 T01991047
KBVN 221855Z AUTO 25010G21KT 10SM CLR 20/M04 A3003 RMK AO2 T01951036
KBVN 221835Z AUTO 23014G18KT 10SM CLR 19/M03 A3004 RMK AO2 T01921026
KBVN 221815Z AUTO 23010KT 10SM CLR 19/M02 A3005 RMK AO2 T01861016
KBVN 221755Z AUTO 22013G18KT 10SM CLR 18/M01 A3006 RMK AO2 T01811012 10181 21015
KBVN 221735Z AUTO 22014G21KT 10SM CLR 18/01 A3007 RMK AO2 T01770006
KBVN 221715Z AUTO 23011G17KT 10SM CLR 17/01 A3008 RMK AO2 T01690014
KBVN 221655Z AUTO 20013G18KT 10SM CLR 16/01 A3008 RMK AO2 T01620013
KBVN 221635Z AUTO 22010G17KT 10SM CLR 16/02 A3009 RMK AO2 T01570024
KBVN 221615Z AUTO 24010KT 10SM CLR 15/02 A3010 RMK AO2 T01450024
KBVN 221555Z AUTO 23010KT 10SM CLR 14/02 A3011 RMK AO2 T01380024
KBVN 221535Z AUTO 23008KT 10SM CLR 13/03 A3011 RMK AO2 T01260028
KBVN 221515Z AUTO 18003KT 10SM CLR 11/03 A3011 RMK AO2 T01070032
KBVN 221455Z AUTO 24005KT 10SM CLR 08/03 A3011 RMK AO2 T00820033
KBVN 221435Z AUTO 00000KT 10SM CLR 06/03 A3011 RMK AO2 T00590027
KBVN 221415Z AUTO 00000KT 10SM CLR 02/01 A3011 RMK AO2 T00240008
KBVN 221355Z AUTO 00000KT 10SM CLR 01/00 A3011 RMK AO2 T00061001
KBVN 221335Z AUTO 00000KT 10SM CLR 00/M02 A3011 RMK AO2 T10051017
KBVN 221315Z AUTO 00000KT 10SM CLR M01/M02 A3010 RMK AO2 T10141025
KBVN 221255Z AUTO 00000KT 10SM CLR 00/M01 A3011 RMK AO2 T10021011
KBVN 221235Z AUTO 00000KT 10SM CLR M01/M02 A3010 RMK AO2 T10061016
KBVN 221215Z AUTO 00000KT 10SM CLR M01/M02 A3010 RMK AO2 T10061017
KBVN 221155Z AUTO 00000KT 10SM CLR M01/M02 A3011 RMK AO2 T10121021 10014 21016
KBVN 221135Z AUTO 00000KT 10SM CLR 00/M01 A3011 RMK AO2 T10031015
KBVN 221115Z AUTO 33003KT 10SM CLR M01/M01 A3010 RMK AO2 T10061014
KBVN 221055Z AUTO 32003KT 10SM CLR M01/M03 A3008 RMK AO2 T10141028
KBVN 221035Z AUTO 00000KT 10SM CLR M01/M02 A3008 RMK AO2 T10071017
KBVN 221015Z AUTO 00000KT 10SM CLR 00/M01 A3007 RMK AO2 T10021009
KBVN 220955Z AUTO 32003KT 10SM CLR M01/M02 A3006 RMK AO2 T10111023
KBVN 220935Z AUTO 00000KT 10SM CLR 00/M01 A3005 RMK AO2 T00001011
KBVN 220915Z AUTO 00000KT 10SM CLR 00/M01 A3004 RMK AO2 T00041006
KBVN 220855Z AUTO 00000KT 10SM CLR 00/M01 A3003 RMK AO2 T00001006
KBVN 220835Z AUTO 00000KT 10SM CLR 00/00 A3005 RMK AO2 T00021005
KBVN 220815Z AUTO 00000KT 10SM CLR 00/00 A3002 RMK AO2 T00011004
KBVN 220755Z AUTO 00000KT 10SM CLR 00/00 A3002 RMK AO2 T00021002
KBVN 220735Z AUTO 32004KT 10SM CLR 00/M01 A3002 RMK AO2 T00011006
KBVN 220715Z AUTO 32003KT 10SM CLR 00/00 A3002 RMK AO2 T00011004
KBVN 220655Z AUTO 33003KT 10SM CLR 00/00 A3003 RMK AO2 T00011004
KBVN 220635Z AUTO 00000KT 10SM CLR 01/00 A3002 RMK AO2 T00100001
KBVN 220615Z AUTO 00000KT 10SM CLR 01/00 A3004 RMK AO2 T00110002
KBVN 220555Z AUTO 00000KT 10SM CLR 01/00 A3003 RMK AO2 T00100001 10099 20008 402080008
KBVN 220535Z AUTO 00000KT 10SM CLR 02/01 A3001 RMK AO2 T00200010
KBVN 220515Z AUTO 00000KT 10SM CLR 01/00 A3001 RMK AO2 T00100000
KBVN 220455Z AUTO 00000KT 10SM CLR 03/01 A3001 RMK AO2 T00250012
KBVN 220435Z AUTO 00000KT 10SM CLR 03/01 A3001 RMK AO2 T00250011
KBVN 220415Z AUTO 00000KT 10SM CLR 03/02 A3001 RMK AO2 T00250015
KBVN 220355Z AUTO 00000KT 10SM CLR 02/01 A3001 RMK AO2 T00220012
KBVN 220335Z AUTO 00000KT 10SM CLR 03/02 A3000 RMK AO2 T00330020
KBVN 220315Z AUTO 00000KT 10SM CLR 04/02 A2999 RMK AO2 T00380022
KBVN 220255Z AUTO 33003KT 10SM CLR 04/02 A2996 RMK AO2 T00420022
KBVN 220235Z AUTO 32003KT 10SM CLR 03/02 A2996 RMK AO2 T00300016
KBVN 220215Z AUTO 00000KT 10SM CLR 04/03 A2997 RMK AO2 T00430027
KBVN 220155Z AUTO 00000KT 10SM CLR 04/02 A2997 RMK AO2 T00430022
KBVN 220135Z AUTO 12004KT 10SM CLR 05/03 A2998 RMK AO2 T00490028
KBVN 220115Z AUTO 00000KT 10SM CLR 06/03 A2996 RMK AO2 T00570030
KBVN 220055Z AUTO 00000KT 10SM CLR 07/03 A2994 RMK AO2 T00650033
KBVN 220035Z AUTO 00000KT 10SM CLR 07/04 A2995 RMK AO2 LTG DSNT E T00650036
KBVN 220015Z AUTO 00000KT 10SM CLR 09/03 A2995 RMK AO2 T00850034
KBVN 212355Z AUTO 00000KT 10SM CLR 10/04 A2994 RMK AO2 T01010037 10136 20097
KBVN 212335Z AUTO 32004KT 10SM CLR 11/04 A2992 RMK AO2 T01080040
KBVN 212315Z AUTO 32009G17KT 10SM CLR 12/04 A2991 RMK AO2 T01240037
KBVN 212255Z AUTO 32010KT 10SM SCT110 13/04 A2989 RMK AO2 T01300038
KBVN 212235Z AUTO 32010KT 10SM BKN110 12/04 A2989 RMK AO2 T01240039
KBVN 212215Z AUTO 32012KT 10SM SCT110 12/03 A2989 RMK AO2 T01200031
KBVN 212155Z AUTO 33016G21KT 10SM BKN110 13/03 A2988 RMK AO2 T01340033
KBVN 212135Z AUTO 33015G22KT 10SM SCT070 BKN095 13/04 A2987 RMK AO2 T01330035
KBVN 212115Z AUTO 32018G24KT 10SM BKN070 OVC095 13/03 A2986 RMK AO2 T01280033
KBVN 212055Z AUTO 33017G22KT 10SM OVC070 13/03 A2986 RMK AO2 T01250034
KBVN 212035Z AUTO 31019G23KT 10SM OVC070 13/04 A2984 RMK AO2 T01250039
KBVN 212015Z AUTO 33017G30KT 10SM BKN070 OVC080 13/04 A2982 RMK AO2 T01260043
KBVN 211955Z AUTO 32019G30KT 10SM OVC070 13/04 A2982 RMK AO2 T01250043
KBVN 211935Z AUTO 33023G32KT 10SM OVC060 12/04 A2980 RMK AO2 T01240044
KBVN 211915Z AUTO 32022G30KT 10SM OVC060 13/04 A2979 RMK AO2 T01260042
KBVN 211855Z AUTO 32018G27KT 10SM OVC050 13/04 A2978 RMK AO2 T01280043
KBVN 211835Z AUTO 32020G30KT 10SM OVC050 14/05 A2977 RMK AO2 T01350045
KBVN 211815Z AUTO 32022G36KT 10SM OVC048 14/05 A2976 RMK AO2 T01360050
KBVN 211755Z AUTO 32024G31KT 10SM SCT046 OVC060 14/05 A2974 RMK AO2 T01370053 10206 20136
KBVN 211735Z AUTO 33021G28KT 10SM SCT047 BKN055 OVC070 14/06 A2973 RMK AO2 T01400055
KBVN 211715Z AUTO 32022G29KT 10SM OVC045 14/06 A2972 RMK AO2 T01390056
KBVN 211655Z AUTO 32024G28KT 10SM OVC038 14/06 A2969 RMK AO2 T01430059
KBVN 211635Z AUTO 32021G30KT 10SM OVC036 15/06 A2969 RMK AO2 T01480060
KBVN 211615Z AUTO 33021G29KT 10SM BKN034 BKN043 OVC048 15/07 A2967 RMK AO2 T01510066
KBVN 211555Z AUTO 33020G29KT 10SM SCT026 BKN032 OVC050 16/08 A2964 RMK AO2 T01600084
KBVN 211535Z AUTO 32018G28KT 10SM BKN022 BKN029 OVC050 17/09 A2963 RMK AO2 T01650093
KBVN 211515Z AUTO 22007KT 10SM BKN022 OVC030 20/16 A2960 RMK AO2 T02010162
KBVN 211455Z AUTO 22009KT 10SM SCT024 BKN034 OVC047 20/16 A2958 RMK AO2 T02040163
KBVN 211435Z AUTO 20011KT 10SM SCT033 SCT041 OVC048 20/16 A2957 RMK AO2 T02030164
KBVN 211415Z AUTO 20010G16KT 10SM SCT026 BKN040 BKN048 20/16 A2957 RMK AO2 T02010163
KBVN 211355Z AUTO 19012G17KT 10SM SCT024 BKN030 OVC042 20/17 A2955 RMK AO2 T02020165
KBVN 211335Z AUTO 19009G18KT 10SM SCT022 BKN030 OVC036 20/17 A2954 RMK AO2 T02010165
KBVN 211315Z AUTO 18009KT 10SM BKN026 OVC034 20/17 A2953 RMK AO2 T02020165
KBVN 211255Z AUTO 18013G18KT 10SM BKN026 BKN030 OVC036 20/17 A2953 RMK AO2 T02020165
KBVN 211235Z AUTO 18014G17KT 10SM OVC027 20/17 A2953 RMK AO2 T02020165
KBVN 211215Z AUTO 19014G21KT 10SM OVC027 21/17 A2953 RMK AO2 T02050165
KBVN 211155Z AUTO 20018G22KT 10SM OVC025 21/17 A2953 RMK AO2 T02060165 10208 20200
KBVN 211135Z AUTO 19016G23KT 10SM OVC025 21/17 A2952 RMK AO2 T02070165
KBVN 211115Z AUTO 20020G26KT 10SM OVC027 21/17 A2951 RMK AO2 T02070165
KBVN 211055Z AUTO 19014G21KT 10SM OVC027 21/17 A2950 RMK AO2 T02050165
KBVN 211035Z AUTO 19014G21KT 10SM OVC027 21/17 A2949 RMK AO2 T02050165
KBVN 211015Z AUTO 19013G22KT 10SM OVC027 20/17 A2949 RMK AO2 T02030165
KBVN 210955Z AUTO 18013G22KT 10SM OVC027 20/17 A2949 RMK AO2 T02010165
KBVN 210935Z AUTO 18015G24KT 10SM OVC027 20/17 A2949 RMK AO2 T02020165
KBVN 210915Z AUTO 18020G30KT 10SM OVC027 21/17 A2950 RMK AO2 T02050165